POD1 KHND-KPSP
Flight info
| Callsign | POD1 |
|---|---|
| Flight time | 0h 31m |
| Altitude | 23000 |
| Route | OYODA2 BLAQQ ZELMA RDBUL1 |
| Aircraft | CL60/M-SBDE1E2E3FGHIJ1J3J4J5J7M3P2RWXYZ/LB1V1D1 |
Departure
| Time | 2026-05-08 17:54 |
|---|---|
| Airport | Henderson Executive Airport (KHND) |
Arrival
| Time | 2026-05-08 18:25 |
|---|---|
| Airport | Palm Springs International Airport (KPSP) |
| Time | Latitude | Longitude | Altitude | Speed | Heading |
|---|---|---|---|---|---|
| 2026-05-08 17:33 | 35.97774 | -115.13814 | 2420 ft | 0 kts | 180° |
| 2026-05-08 17:47 | 35.97772 | -115.13814 | 2420 ft | 0 kts | 196° |
| 2026-05-08 17:48 | 35.97766 | -115.13821 | 2420 ft | 2 kts | 245° |
| 2026-05-08 17:48 | 35.97789 | -115.13851 | 2420 ft | 8 kts | 337° |
| 2026-05-08 17:48 | 35.97868 | -115.13857 | 2417 ft | 14 kts | 0° |
| 2026-05-08 17:48 | 35.97927 | -115.13809 | 2414 ft | 12 kts | 88° |
| 2026-05-08 17:49 | 35.97926 | -115.13690 | 2415 ft | 14 kts | 90° |
| 2026-05-08 17:49 | 35.97955 | -115.13635 | 2414 ft | 4 kts | 358° |
| 2026-05-08 17:49 | 35.98012 | -115.13638 | 2411 ft | 11 kts | 358° |
| 2026-05-08 17:49 | 35.98079 | -115.13623 | 2410 ft | 2 kts | 52° |
| 2026-05-08 17:50 | 35.98079 | -115.13622 | 2410 ft | 0 kts | 53° |
| 2026-05-08 17:50 | 35.98083 | -115.13562 | 2410 ft | 11 kts | 102° |
| 2026-05-08 17:50 | 35.98051 | -115.13533 | 2410 ft | 0 kts | 180° |
| 2026-05-08 17:53 | 35.97769 | -115.13536 | 2421 ft | 92 kts | 181° |
| 2026-05-08 17:54 | 35.96841 | -115.13547 | 2574 ft | 162 kts | 181° |
| 2026-05-08 17:54 | 35.95592 | -115.13560 | 3183 ft | 197 kts | 180° |
| 2026-05-08 17:54 | 35.94147 | -115.13884 | 3878 ft | 229 kts | 207° |
| 2026-05-08 17:54 | 35.92753 | -115.14924 | 4781 ft | 245 kts | 214° |
| 2026-05-08 17:55 | 35.91254 | -115.16000 | 5787 ft | 258 kts | 203° |
| 2026-05-08 17:55 | 35.89448 | -115.16367 | 6559 ft | 280 kts | 176° |
| 2026-05-08 17:55 | 35.87475 | -115.16076 | 7547 ft | 292 kts | 173° |
| 2026-05-08 17:55 | 35.85467 | -115.15766 | 8745 ft | 297 kts | 174° |
| 2026-05-08 17:56 | 35.83426 | -115.15458 | 9975 ft | 301 kts | 174° |
| 2026-05-08 17:56 | 35.81353 | -115.15147 | 11133 ft | 308 kts | 174° |
| 2026-05-08 17:56 | 35.79175 | -115.14821 | 12012 ft | 327 kts | 174° |
| 2026-05-08 17:56 | 35.76817 | -115.14774 | 12775 ft | 346 kts | 189° |
| 2026-05-08 17:57 | 35.74512 | -115.15710 | 13534 ft | 361 kts | 211° |
| 2026-05-08 17:57 | 35.72631 | -115.17731 | 14383 ft | 369 kts | 236° |
| 2026-05-08 17:57 | 35.71414 | -115.20519 | 15268 ft | 377 kts | 247° |
| 2026-05-08 17:57 | 35.70309 | -115.23477 | 16229 ft | 384 kts | 247° |
| 2026-05-08 17:58 | 35.69179 | -115.26468 | 17210 ft | 390 kts | 247° |
| 2026-05-08 17:58 | 35.67755 | -115.29329 | 18121 ft | 400 kts | 233° |
| 2026-05-08 17:58 | 35.65902 | -115.31924 | 18989 ft | 407 kts | 230° |
| 2026-05-08 17:58 | 35.63982 | -115.34505 | 19874 ft | 412 kts | 226° |
| 2026-05-08 17:59 | 35.61695 | -115.36664 | 20709 ft | 420 kts | 212° |
| 2026-05-08 17:59 | 35.58977 | -115.38042 | 21474 ft | 428 kts | 195° |
| 2026-05-08 17:59 | 35.56012 | -115.38451 | 22117 ft | 437 kts | 179° |
| 2026-05-08 17:59 | 35.52934 | -115.38255 | 22394 ft | 448 kts | 176° |
| 2026-05-08 18:00 | 35.49833 | -115.38020 | 22645 ft | 447 kts | 176° |
| 2026-05-08 18:00 | 35.43655 | -115.37564 | 23110 ft | 443 kts | 176° |
| 2026-05-08 18:00 | 35.40570 | -115.37342 | 23122 ft | 445 kts | 176° |
| 2026-05-08 18:01 | 35.37469 | -115.37121 | 23125 ft | 444 kts | 176° |
| 2026-05-08 18:01 | 35.34380 | -115.36901 | 23131 ft | 442 kts | 176° |
| 2026-05-08 18:01 | 35.31306 | -115.36683 | 23136 ft | 441 kts | 177° |
| 2026-05-08 18:01 | 35.28236 | -115.36465 | 23140 ft | 440 kts | 176° |
| 2026-05-08 18:02 | 35.25176 | -115.36249 | 23145 ft | 441 kts | 176° |
| 2026-05-08 18:02 | 35.23112 | -115.36103 | 23145 ft | 441 kts | 176° |
| 2026-05-08 18:02 | 35.19038 | -115.35816 | 23140 ft | 441 kts | 176° |
| 2026-05-08 18:02 | 35.15967 | -115.35601 | 23139 ft | 442 kts | 176° |
| 2026-05-08 18:03 | 35.12859 | -115.35383 | 23135 ft | 441 kts | 176° |
| 2026-05-08 18:03 | 35.09785 | -115.35167 | 23131 ft | 441 kts | 176° |
| 2026-05-08 18:03 | 35.06715 | -115.34952 | 23125 ft | 440 kts | 176° |
| 2026-05-08 18:03 | 35.03646 | -115.34738 | 23120 ft | 440 kts | 176° |
| 2026-05-08 18:04 | 35.00586 | -115.34525 | 23114 ft | 440 kts | 176° |
| 2026-05-08 18:04 | 34.97619 | -115.34318 | 23103 ft | 440 kts | 176° |
| 2026-05-08 18:04 | 34.94474 | -115.34099 | 23091 ft | 440 kts | 176° |
| 2026-05-08 18:04 | 34.91411 | -115.33886 | 23083 ft | 440 kts | 176° |
| 2026-05-08 18:05 | 34.88306 | -115.33670 | 23074 ft | 440 kts | 176° |
| 2026-05-08 18:05 | 34.85271 | -115.33459 | 23065 ft | 440 kts | 176° |
| 2026-05-08 18:05 | 34.82216 | -115.33247 | 23056 ft | 440 kts | 176° |
| 2026-05-08 18:05 | 34.79146 | -115.33176 | 23049 ft | 440 kts | 184° |
| 2026-05-08 18:06 | 34.76115 | -115.33949 | 23039 ft | 440 kts | 199° |
| 2026-05-08 18:06 | 34.73225 | -115.35210 | 22990 ft | 441 kts | 200° |
| 2026-05-08 18:06 | 34.70353 | -115.36472 | 22762 ft | 444 kts | 200° |
| 2026-05-08 18:06 | 34.67451 | -115.37743 | 22513 ft | 440 kts | 200° |
| 2026-05-08 18:07 | 34.64543 | -115.39015 | 22257 ft | 438 kts | 200° |
| 2026-05-08 18:07 | 34.61716 | -115.40252 | 22008 ft | 436 kts | 200° |
| 2026-05-08 18:07 | 34.58832 | -115.41512 | 21747 ft | 434 kts | 200° |
| 2026-05-08 18:07 | 34.56025 | -115.42738 | 21496 ft | 433 kts | 200° |
| 2026-05-08 18:08 | 34.53153 | -115.43991 | 21227 ft | 431 kts | 200° |
| 2026-05-08 18:08 | 34.50335 | -115.45220 | 20963 ft | 430 kts | 200° |
| 2026-05-08 18:08 | 34.47527 | -115.46444 | 20564 ft | 430 kts | 200° |
| 2026-05-08 18:08 | 34.44720 | -115.47666 | 20106 ft | 425 kts | 200° |
| 2026-05-08 18:09 | 34.41953 | -115.48870 | 19649 ft | 421 kts | 200° |
| 2026-05-08 18:09 | 34.39208 | -115.50063 | 19192 ft | 417 kts | 200° |
| 2026-05-08 18:09 | 34.36487 | -115.51246 | 18742 ft | 414 kts | 200° |
| 2026-05-08 18:09 | 34.33805 | -115.52472 | 18357 ft | 410 kts | 205° |
| 2026-05-08 18:10 | 34.31401 | -115.54301 | 17925 ft | 408 kts | 221° |
| 2026-05-08 18:10 | 34.29323 | -115.56610 | 17460 ft | 403 kts | 225° |
| 2026-05-08 18:10 | 34.27281 | -115.58919 | 17037 ft | 401 kts | 224° |
| 2026-05-08 18:10 | 34.25246 | -115.61212 | 16606 ft | 398 kts | 224° |
| 2026-05-08 18:11 | 34.23223 | -115.63490 | 16169 ft | 396 kts | 224° |
| 2026-05-08 18:11 | 34.21213 | -115.65752 | 15746 ft | 393 kts | 224° |
| 2026-05-08 18:11 | 34.19216 | -115.67997 | 15312 ft | 390 kts | 224° |
| 2026-05-08 18:11 | 34.17233 | -115.70225 | 14907 ft | 388 kts | 224° |
| 2026-05-08 18:12 | 34.15241 | -115.72463 | 14446 ft | 384 kts | 223° |
| 2026-05-08 18:12 | 34.13293 | -115.74649 | 14040 ft | 381 kts | 223° |
| 2026-05-08 18:12 | 34.11349 | -115.76803 | 13636 ft | 377 kts | 220° |
| 2026-05-08 18:12 | 34.09249 | -115.78642 | 13204 ft | 372 kts | 214° |
| 2026-05-08 18:13 | 34.07110 | -115.80366 | 12812 ft | 361 kts | 214° |
| 2026-05-08 18:13 | 34.05062 | -115.82024 | 12435 ft | 352 kts | 214° |
| 2026-05-08 18:13 | 34.03045 | -115.83656 | 12058 ft | 343 kts | 214° |
| 2026-05-08 18:13 | 34.01102 | -115.85229 | 11696 ft | 333 kts | 214° |
| 2026-05-08 18:14 | 33.99185 | -115.86780 | 11339 ft | 325 kts | 214° |
| 2026-05-08 18:14 | 33.97347 | -115.88267 | 10987 ft | 318 kts | 214° |
| 2026-05-08 18:14 | 33.95520 | -115.89745 | 10636 ft | 312 kts | 214° |
| 2026-05-08 18:14 | 33.93735 | -115.91188 | 10317 ft | 304 kts | 213° |
| 2026-05-08 18:15 | 33.91982 | -115.92605 | 9976 ft | 299 kts | 213° |
| 2026-05-08 18:15 | 33.90279 | -115.93981 | 9653 ft | 293 kts | 213° |
| 2026-05-08 18:15 | 33.88598 | -115.95353 | 9332 ft | 288 kts | 216° |
| 2026-05-08 18:15 | 33.87236 | -115.97086 | 9035 ft | 287 kts | 236° |
| 2026-05-08 18:16 | 33.86198 | -115.99126 | 8847 ft | 279 kts | 238° |
| 2026-05-08 18:16 | 33.85195 | -116.01090 | 8606 ft | 272 kts | 238° |
| 2026-05-08 18:16 | 33.84220 | -116.02994 | 8347 ft | 265 kts | 238° |
| 2026-05-08 18:16 | 33.83270 | -116.04848 | 8176 ft | 260 kts | 238° |
| 2026-05-08 18:17 | 33.82310 | -116.06722 | 8145 ft | 262 kts | 238° |
| 2026-05-08 18:17 | 33.81358 | -116.08581 | 8129 ft | 262 kts | 239° |
| 2026-05-08 18:17 | 33.80629 | -116.10587 | 8108 ft | 263 kts | 251° |
| 2026-05-08 18:17 | 33.80075 | -116.12682 | 8097 ft | 263 kts | 252° |
| 2026-05-08 18:18 | 33.79527 | -116.14791 | 8058 ft | 264 kts | 255° |
| 2026-05-08 18:18 | 33.79132 | -116.16966 | 7543 ft | 270 kts | 259° |
| 2026-05-08 18:18 | 33.78772 | -116.19183 | 6870 ft | 273 kts | 255° |
| 2026-05-08 18:18 | 33.78271 | -116.21173 | 6351 ft | 269 kts | 251° |
| 2026-05-08 18:19 | 33.77687 | -116.23258 | 5939 ft | 260 kts | 250° |
| 2026-05-08 18:19 | 33.76950 | -116.25207 | 5436 ft | 256 kts | 241° |
| 2026-05-08 18:19 | 33.76065 | -116.27010 | 5105 ft | 245 kts | 238° |
| 2026-05-08 18:19 | 33.75283 | -116.28665 | 5076 ft | 213 kts | 247° |
| 2026-05-08 18:20 | 33.74928 | -116.30306 | 4734 ft | 196 kts | 264° |
| 2026-05-08 18:20 | 33.74858 | -116.31898 | 4245 ft | 188 kts | 269° |
| 2026-05-08 18:20 | 33.74906 | -116.33431 | 3888 ft | 175 kts | 273° |
| 2026-05-08 18:20 | 33.74972 | -116.34890 | 3758 ft | 183 kts | 272° |
| 2026-05-08 18:21 | 33.75028 | -116.36435 | 3770 ft | 185 kts | 271° |
| 2026-05-08 18:21 | 33.75051 | -116.37985 | 3492 ft | 185 kts | 270° |
| 2026-05-08 18:21 | 33.75054 | -116.39510 | 3128 ft | 168 kts | 269° |
| 2026-05-08 18:21 | 33.75052 | -116.40782 | 2858 ft | 143 kts | 271° |
| 2026-05-08 18:22 | 33.75192 | -116.41914 | 2483 ft | 132 kts | 287° |
| 2026-05-08 18:22 | 33.75518 | -116.42942 | 2190 ft | 139 kts | 293° |
| 2026-05-08 18:22 | 33.75991 | -116.43958 | 1968 ft | 137 kts | 305° |
| 2026-05-08 18:22 | 33.76589 | -116.44843 | 1768 ft | 136 kts | 312° |
| 2026-05-08 18:23 | 33.77252 | -116.45664 | 1587 ft | 135 kts | 319° |
| 2026-05-08 18:23 | 33.77983 | -116.46365 | 1431 ft | 133 kts | 324° |
| 2026-05-08 18:23 | 33.78741 | -116.47018 | 1235 ft | 135 kts | 323° |
| 2026-05-08 18:23 | 33.79484 | -116.47700 | 1055 ft | 134 kts | 323° |
| 2026-05-08 18:24 | 33.80233 | -116.48362 | 913 ft | 133 kts | 324° |
| 2026-05-08 18:24 | 33.80990 | -116.49029 | 766 ft | 135 kts | 324° |
| 2026-05-08 18:24 | 33.81736 | -116.49682 | 583 ft | 131 kts | 324° |
| 2026-05-08 18:24 | 33.82456 | -116.50313 | 473 ft | 119 kts | 322° |
| 2026-05-08 18:25 | 33.82986 | -116.50785 | 490 ft | 65 kts | 323° |
| 2026-05-08 18:25 | 33.83254 | -116.51021 | 500 ft | 40 kts | 324° |
| 2026-05-08 18:25 | 33.83335 | -116.51135 | 503 ft | 14 kts | 256° |
| 2026-05-08 18:25 | 33.83256 | -116.51205 | 503 ft | 16 kts | 185° |
| 2026-05-08 18:26 | 33.83154 | -116.51147 | 500 ft | 18 kts | 142° |
| 2026-05-08 18:26 | 33.83051 | -116.51056 | 496 ft | 20 kts | 144° |
| 2026-05-08 18:26 | 33.82923 | -116.50942 | 492 ft | 23 kts | 143° |
| 2026-05-08 18:26 | 33.82799 | -116.50822 | 488 ft | 24 kts | 143° |
| 2026-05-08 18:27 | 33.82668 | -116.50706 | 482 ft | 18 kts | 146° |
| 2026-05-08 18:27 | 33.82611 | -116.50687 | 481 ft | 11 kts | 213° |
| 2026-05-08 18:27 | 33.82536 | -116.50746 | 481 ft | 12 kts | 249° |
| 2026-05-08 18:27 | 33.82536 | -116.50835 | 483 ft | 9 kts | 272° |
| 2026-05-08 18:28 | 33.82569 | -116.50887 | 484 ft | 4 kts | 27° |
| 2026-05-08 18:28 | 33.82578 | -116.50857 | 484 ft | 0 kts | 88° |